Festivo — EAEQ — position and weather

sailwx.info

Track history (hours):
 
Tides and Currents Weather Stations Pressure Air Temp Water Temp Dewpoint Dewpoint Depression Visibility Wind Speed Wind Dir Waves Ship Positions

Festivo

Last reported at 2015-May-23 15:33 UTC. Time now 2015-May-25 15:23 UTC.
Position N 35°55' W 005°17'.

Length 136 m; draft 4.5 m.

Type: Cargo ship. MMSI: 225410000.

Date/timePositionNaut miles runAvg speedWind from/ knotsBaromVisibWave heightAir tempDewpointWater temp
2015-May-23 15:33N 35°55' W 005°17'2 2.1
2015-May-23 14:31N 35°54' W 005°19'0 0.0
2015-May-23 13:31N 35°54' W 005°19'0 0.0
2015-May-23 12:31N 35°54' W 005°19'0 0.0
2015-May-23 11:31N 35°54' W 005°19'0 0.0
2015-May-23 10:31N 35°54' W 005°19'0 0.0
2015-May-23 09:28N 35°54' W 005°19'0 0.0
2015-May-23 08:31N 35°54' W 005°19'0 0.0
2015-May-23 07:31N 35°54' W 005°19'0 0.0
2015-May-23 06:31N 35°54' W 005°19'0 0.0
2015-May-23 05:31N 35°54' W 005°19'1 0.7
2015-May-23 04:33N 35°54' W 005°19'7 6.8
2015-May-23 03:33N 35°57' W 005°12'2 0.0
2015-May-21 10:28N 35°59' W 005°12'8 9.1
2015-May-21 09:33N 35°54' W 005°19'0 0.0
2015-May-21 08:31N 35°54' W 005°19'0 0.0
2015-May-21 07:31N 35°54' W 005°19'0 0.0
2015-May-21 06:31N 35°54' W 005°19'0 0.0
2015-May-21 05:31N 35°54' W 005°19'1 0.6
2015-May-21 04:33N 35°54' W 005°19'3 0.1
2015-May-19 09:33N 35°56' W 005°17'3 3.2
2015-May-19 08:33N 35°54' W 005°19'0 0.0
2015-May-19 07:32N 35°54' W 005°19'0 0.0
2015-May-19 06:32N 35°54' W 005°19'0 0.0
2015-May-19 05:32N 35°54' W 005°19'1 0.7
2015-May-19 04:33N 35°54' W 005°19'6 6.4
2015-May-19 03:33N 35°57' W 005°12'  
2015-May-16 15:33N 35°55' W 005°17'2 2.4
2015-May-16 14:34N 35°54' W 005°19'0 0.0
2015-May-16 13:33N 35°54' W 005°19'0 0.0
2015-May-16 12:33N 35°54' W 005°19'0 0.0
2015-May-16 11:33N 35°54' W 005°19'0 0.0
2015-May-16 10:33N 35°54' W 005°19'0 0.0
2015-May-16 09:33N 35°54' W 005°19'0 0.0
2015-May-16 08:33N 35°54' W 005°19'0 0.0
2015-May-16 07:33N 35°54' W 005°19'0 0.1
2015-May-16 06:34N 35°54' W 005°19'4 3.7
2015-May-16 05:33N 35°57' W 005°16'12 0.3
2015-May-14 10:30N 36°05' W 005°06'1112.0
2015-May-14 09:33N 35°57' W 005°15'5 4.5
2015-May-14 08:33N 35°54' W 005°19'0 0.0
2015-May-14 07:33N 35°54' W 005°19'0 0.0
2015-May-14 06:33N 35°54' W 005°19'0 0.0
2015-May-14 05:33N 35°54' W 005°19'0 0.3
2015-May-14 04:33N 35°54' W 005°19'6 6.0
2015-May-14 03:33N 35°57' W 005°13'  
Track history (hours):
 
Tides and Currents Weather Stations Pressure Air Temp Water Temp Dewpoint Dewpoint Depression Visibility Wind Speed Wind Dir Waves Ship Positions

Festivo

Last reported at 2015-May-23 15:33 UTC. Time now 2015-May-25 15:23 UTC.
Position N 35°55' W 005°17'.

Length 136 m; draft 4.5 m.

Type: Cargo ship. MMSI: 225410000.

Date/timePositionNaut miles runAvg speedWind from/ knotsBaromVisibWave heightAir tempDewpointWater temp
2015-May-23 15:33N 35°55' W 005°17'2 2.1
2015-May-23 14:31N 35°54' W 005°19'0 0.0
2015-May-23 13:31N 35°54' W 005°19'0 0.0
2015-May-23 12:31N 35°54' W 005°19'0 0.0
2015-May-23 11:31N 35°54' W 005°19'0 0.0
2015-May-23 10:31N 35°54' W 005°19'0 0.0
2015-May-23 09:28N 35°54' W 005°19'0 0.0
2015-May-23 08:31N 35°54' W 005°19'0 0.0
2015-May-23 07:31N 35°54' W 005°19'0 0.0
2015-May-23 06:31N 35°54' W 005°19'0 0.0
2015-May-23 05:31N 35°54' W 005°19'1 0.7
2015-May-23 04:33N 35°54' W 005°19'7 6.8
2015-May-23 03:33N 35°57' W 005°12'2 0.0
2015-May-21 10:28N 35°59' W 005°12'8 9.1
2015-May-21 09:33N 35°54' W 005°19'0 0.0
2015-May-21 08:31N 35°54' W 005°19'0 0.0
2015-May-21 07:31N 35°54' W 005°19'0 0.0
2015-May-21 06:31N 35°54' W 005°19'0 0.0
2015-May-21 05:31N 35°54' W 005°19'1 0.6
2015-May-21 04:33N 35°54' W 005°19'3 0.1
2015-May-19 09:33N 35°56' W 005°17'3 3.2
2015-May-19 08:33N 35°54' W 005°19'0 0.0
2015-May-19 07:32N 35°54' W 005°19'0 0.0
2015-May-19 06:32N 35°54' W 005°19'0 0.0
2015-May-19 05:32N 35°54' W 005°19'1 0.7
2015-May-19 04:33N 35°54' W 005°19'6 6.4
2015-May-19 03:33N 35°57' W 005°12'  
2015-May-16 15:33N 35°55' W 005°17'2 2.4
2015-May-16 14:34N 35°54' W 005°19'0 0.0
2015-May-16 13:33N 35°54' W 005°19'0 0.0
2015-May-16 12:33N 35°54' W 005°19'0 0.0
2015-May-16 11:33N 35°54' W 005°19'0 0.0
2015-May-16 10:33N 35°54' W 005°19'0 0.0
2015-May-16 09:33N 35°54' W 005°19'0 0.0
2015-May-16 08:33N 35°54' W 005°19'0 0.0
2015-May-16 07:33N 35°54' W 005°19'0 0.1
2015-May-16 06:34N 35°54' W 005°19'4 3.7
2015-May-16 05:33N 35°57' W 005°16'12 0.3
2015-May-14 10:30N 36°05' W 005°06'1112.0
2015-May-14 09:33N 35°57' W 005°15'5 4.5
2015-May-14 08:33N 35°54' W 005°19'0 0.0
2015-May-14 07:33N 35°54' W 005°19'0 0.0
2015-May-14 06:33N 35°54' W 005°19'0 0.0
2015-May-14 05:33N 35°54' W 005°19'0 0.3
2015-May-14 04:33N 35°54' W 005°19'6 6.0
2015-May-14 03:33N 35°57' W 005°13'  

Dump ship's entire track history